Airfield :
LOGIN :

Register | Disclaimer

   EN    FR    IT 

 










Legend :    VFR   Marginal VFR   IFR   Intensive IFR   Very Intensive IFR
Visi :
Ceiling :
>= 8 km
>= 3000ft
5 to 8 km
1000 to 3000 ft
1500m to 5 km
500 to 1000 ft
800 to 1500m
200 to 500 ft
< 800m
< 200 ft
Symbols :   Thunderstorms  Fog  Heavy snow  Heavy precipitations  Wind > 20 kt
SIGMETs :     Misc.  Thunderstorms  Icing  Turbulence  Mountain Waves  Volcanic Ashes






- Airport Elevation : 49 ft
- IATA code : AOI


LIPY - Ancona Falconara

CURRENT METAR :
  • 281550Z AUTO 08004KT 040V110 9999 BKN100/// 22/03 Q1021

EXPIRED METARs :
  • 281520Z AUTO 05004KT 9999 -RA BKN095/// 22/02 Q1021
  • 281450Z AUTO 04006KT 010V070 9999 BKN084/// BKN120/// 22/03 Q1022
  • 281420Z AUTO 04005KT 010V070 9999 BKN088/// 23/02 Q1022
  • 281350Z AUTO 02004KT 340V060 9999 BKN090/// 24/03 Q1022

TAF TAF LIPY
Valid from the 28 at 12:00 until the 29 at 12:00 UTC


281100Z 2812/2912 06010KT 9999 SCT040
BECMG 2817/2819 VRB04KT
TEMPO 2900/2909 TSRA



MET'MAP, your aeronautical weather chart ! - Copyright ORBIFLY December 2007 - Disclaimer

ORBIFLY MET'MAP TEAM :

Programming & Development : Alexandra Zaïnal
Concept & original design : Baudouin d'Aumeries
Assistance for programming : Marc-Olivier Méhu
Technical & hardware support : Manuel Goepfert

Contact : metmap@orbifly.com




SOURCES & CREDITS :

   NOAA